Time;durP1;ratioP1;P1;durP2;ratioP2;P2;SDS_P1;SDS_P2;PMS_P1;PMS_P2;Temp;Humidity;BMP_temperature;BMP_pressure;BME280_temperature;BME280_humidity;BME280_pressure;Samples;Min_cycle;Max_cycle;Signal;HPM_P1;HPM_P2
2021/12/30 00:02:09;;;;;;;3.22;0.82;;;;;;;5.92;100.00;99807.50;5050985;28;20406;-81
2021/12/30 00:04:34;;;;;;;0.90;0.70;;;;;;;5.99;100.00;99825.84;5068365;28;20395;-83
2021/12/30 00:07:00;;;;;;;1.08;0.80;;;;;;;5.94;100.00;99813.59;5068202;28;20052;-84
2021/12/30 00:09:28;;;;;;;1.63;0.77;;;;;;;5.97;100.00;99835.09;5051347;28;20040;-87
2021/12/30 00:11:54;;;;;;;1.63;0.70;;;;;;;5.82;100.00;99791.75;5052190;28;20422;-83
2021/12/30 00:14:20;;;;;;;0.52;0.52;;;;;;;5.91;100.00;99813.47;5070289;28;20024;-86
2021/12/30 00:16:45;;;;;;;0.70;0.70;;;;;;;6.08;100.00;99832.16;5070068;28;20509;-82
2021/12/30 00:19:12;;;;;;;2.78;0.88;;;;;;;5.71;100.00;99792.94;5052594;28;20027;-86
2021/12/30 00:21:38;;;;;;;1.55;0.85;;;;;;;5.62;100.00;99795.06;5052692;28;20441;-80
2021/12/30 00:24:06;;;;;;;0.90;0.57;;;;;;;5.93;100.00;99858.84;5052523;28;20029;-80
2021/12/30 00:26:32;;;;;;;1.02;0.70;;;;;;;5.67;100.00;99826.91;5052425;28;20111;-80
2021/12/30 00:28:58;;;;;;;2.97;0.73;;;;;;;5.92;100.00;99863.88;5052122;28;20132;-83
2021/12/30 00:31:23;;;;;;;0.65;0.60;;;;;;;5.80;100.00;99851.41;5068506;28;20505;-84
2021/12/30 00:33:49;;;;;;;0.70;0.60;;;;;;;5.76;100.00;99867.44;5070613;28;20033;-85
2021/12/30 00:36:14;;;;;;;0.50;0.50;;;;;;;5.63;100.00;99848.03;5069209;28;20024;-85
2021/12/30 00:38:43;;;;;;;0.63;0.50;;;;;;;5.79;100.00;99873.56;5070387;28;20056;-83
2021/12/30 00:41:09;;;;;;;0.77;0.70;;;;;;;5.87;100.00;99876.50;5052524;28;20128;-80
2021/12/30 00:43:35;;;;;;;2.13;0.80;;;;;;;5.66;100.00;99838.81;5070663;28;20111;-84
2021/12/30 00:46:01;;;;;;;1.17;0.57;;;;;;;5.77;100.00;99864.03;5056469;28;20024;-82
2021/12/30 00:48:27;;;;;;;0.80;0.55;;;;;;;5.64;100.00;99852.38;5074230;28;20410;-81
2021/12/30 00:50:53;;;;;;;0.50;0.50;;;;;;;5.63;100.00;99866.88;5074328;28;20040;-85
2021/12/30 00:53:18;;;;;;;0.93;0.50;;;;;;;5.72;100.00;99880.88;5074050;28;20040;-82
2021/12/30 00:55:44;;;;;;;0.63;0.63;;;;;;;5.74;100.00;99882.72;5056538;28;20056;-86
2021/12/30 00:58:11;;;;;;;0.50;0.50;;;;;;;5.55;100.00;99847.69;5056085;28;20130;-84
2021/12/30 01:00:40;;;;;;;2.25;0.82;;;;;;;5.47;100.00;99828.50;5072689;28;20028;-80
2021/12/30 01:03:06;;;;;;;1.08;0.90;;;;;;;5.74;100.00;99876.72;5056001;28;20032;-86
2021/12/30 01:05:32;;;;;;;0.75;0.70;;;;;;;5.77;100.00;99885.44;5073857;28;20052;-85
2021/12/30 01:07:58;;;;;;;0.73;0.50;;;;;;;5.82;100.00;99885.66;5056000;28;20039;-75
2021/12/30 01:10:24;;;;;;;0.50;0.47;;;;;;;5.74;100.00;99875.03;5055641;28;20025;-76
2021/12/30 01:12:52;;;;;;;4.50;0.75;;;;;;;5.50;100.00;99844.91;5055594;28;20050;-78
2021/12/30 01:15:23;;;;;;;0.85;0.70;;;;;;;5.79;100.00;99888.06;5073579;28;20033;-77
2021/12/30 01:17:56;;;;;;;12.88;0.95;;;;;;;5.51;100.00;99835.56;5073721;28;20031;-74
2021/12/30 01:20:21;;;;;;;3.13;1.00;;;;;;;5.83;100.00;99884.81;5073336;28;20442;-76
2021/12/30 01:22:49;;;;;;;1.70;1.02;;;;;;;5.88;100.00;99880.81;5072534;28;20063;-76
2021/12/30 01:25:15;;;;;;;1.73;0.70;;;;;;;5.91;100.00;99883.50;5072442;28;20448;-74
2021/12/30 01:27:41;;;;;;;0.77;0.60;;;;;;;5.85;100.00;99884.91;5073123;28;20036;-77
2021/12/30 01:30:12;;;;;;;0.95;0.88;;;;;;;5.85;100.00;99892.59;5072956;28;20441;-75
2021/12/30 01:32:38;;;;;;;0.82;0.60;;;;;;;5.80;100.00;99885.56;5073255;28;20071;-74
2021/12/30 01:35:05;;;;;;;2.40;0.80;;;;;;;5.75;100.00;99893.84;5038707;28;20063;-74
2021/12/30 01:37:31;;;;;;;14.35;3.85;;;;;;;5.40;100.00;99847.84;5072983;28;20064;-75
2021/12/30 01:39:57;;;;;;;9.93;2.83;;;;;;;5.61;100.00;99899.19;5072898;28;20036;-74
2021/12/30 01:42:22;;;;;;;3.08;1.05;;;;;;;5.63;100.00;99897.59;5073184;28;20032;-75
2021/12/30 01:44:48;;;;;;;1.45;0.55;;;;;;;5.63;100.00;99902.72;5068614;28;20028;-79
2021/12/30 01:47:14;;;;;;;0.70;0.70;;;;;;;5.63;100.00;99892.47;5053179;28;20055;-79
2021/12/30 01:49:39;;;;;;;2.25;0.70;;;;;;;5.56;100.00;99876.72;5049475;28;20032;-80
2021/12/30 01:52:05;;;;;;;1.13;1.02;;;;;;;5.59;100.00;99893.09;5055056;28;20025;-79
2021/12/30 01:54:31;;;;;;;1.05;0.80;;;;;;;5.48;100.00;99876.34;5072215;28;20021;-80
2021/12/30 01:57:01;;;;;;;1.33;0.80;;;;;;;5.56;100.00;99908.34;5071876;28;20539;-80
2021/12/30 01:59:28;;;;;;;3.25;1.10;;;;;;;5.32;100.00;99864.50;5072728;28;20414;-82
2021/12/30 02:01:56;;;;;;;0.60;0.60;;;;;;;5.50;100.00;99895.25;5071773;28;20029;-82
2021/12/30 02:04:27;;;;;;;1.08;0.70;;;;;;;5.44;100.00;99877.03;5072992;28;20031;-80
2021/12/30 02:06:53;;;;;;;0.93;0.63;;;;;;;5.49;100.00;99901.16;5072503;28;20414;-80
2021/12/30 02:09:20;;;;;;;0.57;0.57;;;;;;;5.18;100.00;99862.19;5054553;28;20035;-80
2021/12/30 02:11:46;;;;;;;0.82;0.70;;;;;;;5.31;100.00;99896.91;5072624;28;20090;-80
2021/12/30 02:14:12;;;;;;;2.28;1.10;;;;;;;5.31;100.00;99896.03;5072800;28;20029;-82
2021/12/30 02:16:37;;;;;;;0.40;0.40;;;;;;;5.27;100.00;99891.56;5071561;28;20031;-82
2021/12/30 02:19:03;;;;;;;1.10;1.00;;;;;;;5.32;100.00;99906.34;5054823;28;20035;-81
2021/12/30 02:21:29;;;;;;;0.50;0.50;;;;;;;5.40;100.00;99903.28;5072392;28;20439;-80
2021/12/30 02:23:57;;;;;;;1.48;0.65;;;;;;;5.14;100.00;99865.38;5029508;28;20152;-80
2021/12/30 02:26:23;;;;;;;0.50;0.50;;;;;;;5.26;100.00;99887.25;5030085;28;20443;-80
2021/12/30 02:28:48;;;;;;;1.60;0.60;;;;;;;5.25;100.00;99890.63;5029999;28;20091;-79
2021/12/30 02:31:17;;;;;;;0.93;0.60;;;;;;;5.38;100.00;99910.00;5030049;28;20041;-80
2021/12/30 02:33:44;;;;;;;1.65;0.70;;;;;;;5.29;100.00;99911.31;5029960;28;20075;-81
2021/12/30 02:36:13;;;;;;;1.92;0.70;;;;;;;5.16;100.00;99896.19;5029425;28;20148;-81
2021/12/30 02:38:44;;;;;;;1.35;0.70;;;;;;;5.15;100.00;99912.31;5029944;28;20045;-82
2021/12/30 02:41:14;;;;;;;0.47;0.47;;;;;;;5.10;100.00;99911.22;5029885;28;20043;-80
2021/12/30 02:43:39;;;;;;;1.52;0.77;;;;;;;4.98;100.00;99909.78;5013083;28;20037;-79
2021/12/30 02:46:05;;;;;;;2.05;0.73;;;;;;;4.35;100.00;99807.78;5004044;28;20038;-80
2021/12/30 02:48:32;;;;;;;0.60;0.60;;;;;;;4.91;100.00;99917.97;4990274;28;20038;-77
2021/12/30 02:51:01;;;;;;;0.75;0.75;;;;;;;4.66;100.00;99873.25;4990126;28;20038;-79
2021/12/30 02:53:27;;;;;;;2.92;1.00;;;;;;;4.80;100.00;99916.53;4990253;28;20038;-79
2021/12/30 02:55:54;;;;;;;1.02;0.60;;;;;;;4.73;100.00;99919.59;5028462;28;20059;-79
2021/12/30 02:58:21;;;;;;;1.25;0.55;;;;;;;4.78;100.00;99921.56;5050552;28;20486;-80
2021/12/30 03:00:55;;;;;;;0.60;0.60;;;;;;;4.67;100.00;99933.81;5050755;28;20063;-80
2021/12/30 03:03:23;;;;;;;2.50;0.80;;;;;;;4.41;100.00;99893.22;5051168;28;20121;-81
2021/12/30 03:05:49;;;;;;;1.08;0.60;;;;;;;4.65;100.00;99926.88;5033547;28;20095;-81
2021/12/30 03:08:16;;;;;;;0.98;0.80;;;;;;;4.63;100.00;99938.69;5051024;28;20036;-79
2021/12/30 03:10:41;;;;;;;4.45;1.00;;;;;;;4.65;100.00;99934.53;5033658;28;20487;-80
2021/12/30 03:13:09;;;;;;;0.60;0.60;;;;;;;4.56;100.00;99924.72;5051586;28;20039;-80
2021/12/30 03:15:36;;;;;;;1.13;0.55;;;;;;;4.55;100.00;99930.63;5051629;28;20395;-79
2021/12/30 03:18:02;;;;;;;1.02;0.70;;;;;;;4.49;100.00;99917.50;5051380;28;20423;-80
2021/12/30 03:20:31;;;;;;;1.15;0.80;;;;;;;4.60;100.00;99933.38;5033634;28;20126;-79
2021/12/30 03:22:57;;;;;;;0.52;0.52;;;;;;;4.59;100.00;99929.97;5051611;28;20090;-79
2021/12/30 03:25:22;;;;;;;0.90;0.60;;;;;;;4.57;100.00;99926.44;5051600;28;20486;-79
2021/12/30 03:27:47;;;;;;;0.95;0.65;;;;;;;4.62;100.00;99934.34;5051474;28;20048;-80
2021/12/30 03:30:15;;;;;;;0.77;0.35;;;;;;;4.70;100.00;99943.31;5033623;28;20029;-80
2021/12/30 03:32:41;;;;;;;2.05;0.68;;;;;;;4.68;100.00;99943.22;5050991;28;20163;-80
2021/12/30 03:35:07;;;;;;;1.33;0.70;;;;;;;4.72;100.00;99945.94;5050989;28;20104;-80
2021/12/30 03:37:33;;;;;;;0.70;0.68;;;;;;;4.74;100.00;99954.59;5051155;28;20115;-79
2021/12/30 03:39:59;;;;;;;0.43;0.43;;;;;;;4.68;100.00;99942.34;5051441;28;20166;-76
2021/12/30 03:42:24;;;;;;;0.57;0.57;;;;;;;4.60;100.00;99961.50;5050794;28;20052;-75
2021/12/30 03:44:52;;;;;;;0.80;0.45;;;;;;;4.57;100.00;99956.25;5050651;28;20126;-81
2021/12/30 03:47:19;;;;;;;0.50;0.50;;;;;;;4.54;100.00;99967.19;5050970;28;20016;-80
2021/12/30 03:49:46;;;;;;;2.92;0.70;;;;;;;4.57;100.00;99971.59;5050824;28;20490;-79
2021/12/30 03:52:23;;;;;;;0.80;0.60;;;;;;;4.58;100.00;99987.00;5049863;28;20033;-79
2021/12/30 03:54:48;;;;;;;0.82;0.60;;;;;;;4.43;100.00;99965.75;5051190;28;20024;-80
2021/12/30 03:57:14;;;;;;;2.03;0.60;;;;;;;4.36;100.00;99962.88;5032940;28;20056;-81
2021/12/30 03:59:39;;;;;;;0.70;0.50;;;;;;;4.48;100.00;99980.53;5050687;28;20032;-80
2021/12/30 04:02:05;;;;;;;0.40;0.40;;;;;;;4.47;100.00;99981.31;5050924;28;20033;-80
2021/12/30 04:04:31;;;;;;;0.50;0.50;;;;;;;4.31;100.00;99961.75;5050757;28;20483;-80
2021/12/30 04:06:56;;;;;;;1.00;0.57;;;;;;;4.36;100.00;99978.19;5050896;28;20029;-81
2021/12/30 04:09:22;;;;;;;1.95;0.50;;;;;;;4.44;100.00;100000.75;5050952;28;20481;-82
2021/12/30 04:11:48;;;;;;;0.70;0.50;;;;;;;4.41;100.00;100009.13;5032989;28;20029;-82
2021/12/30 04:14:13;;;;;;;0.90;0.68;;;;;;;4.43;100.00;100006.66;5051393;28;20025;-81
2021/12/30 04:16:39;;;;;;;0.70;0.60;;;;;;;4.35;100.00;100003.69;5052822;28;20025;-80
2021/12/30 04:19:05;;;;;;;0.40;0.40;;;;;;;4.40;100.00;100014.13;5052440;28;20056;-82
2021/12/30 04:21:31;;;;;;;0.77;0.60;;;;;;;4.36;100.00;100013.09;5070620;28;20033;-81
2021/12/30 04:23:57;;;;;;;0.60;0.60;;;;;;;4.28;100.00;99993.91;5070649;28;20516;-82
2021/12/30 04:26:23;;;;;;;0.40;0.40;;;;;;;4.40;100.00;100021.78;5070458;28;20056;-80
2021/12/30 04:28:48;;;;;;;0.60;0.60;;;;;;;4.44;100.00;100031.41;5070009;28;20029;-81
2021/12/30 04:31:14;;;;;;;1.17;0.70;;;;;;;4.44;100.00;100044.19;5070184;28;20056;-80
2021/12/30 04:33:41;;;;;;;1.15;0.80;;;;;;;4.48;100.00;100049.53;5070707;28;20110;-77
2021/12/30 04:36:07;;;;;;;2.13;0.88;;;;;;;4.56;100.00;100049.97;5070733;28;20056;-79
2021/12/30 04:38:34;;;;;;;1.40;0.77;;;;;;;4.37;100.00;100028.53;5052403;28;20056;-78
2021/12/30 04:41:00;;;;;;;0.60;0.60;;;;;;;4.50;100.00;100047.09;5070472;28;20033;-78
2021/12/30 04:43:26;;;;;;;0.90;0.68;;;;;;;4.64;100.00;100079.38;5070643;28;20024;-78
2021/12/30 04:45:52;;;;;;;1.63;0.80;;;;;;;4.62;100.00;100063.09;5059171;28;20029;-78
2021/12/30 04:48:19;;;;;;;1.50;1.10;;;;;;;4.76;100.00;100076.63;4998502;28;20041;-75
2021/12/30 04:50:45;;;;;;;1.50;0.93;;;;;;;4.71;100.00;100083.16;5050288;28;20116;-78
2021/12/30 04:53:13;;;;;;;1.25;0.80;;;;;;;4.42;100.00;100040.66;5050234;28;20413;-81
2021/12/30 04:55:38;;;;;;;1.92;0.80;;;;;;;4.67;100.00;100081.22;5050262;28;20057;-75
2021/12/30 04:58:05;;;;;;;0.70;0.70;;;;;;;4.75;100.00;100099.53;5056494;28;20040;-79
2021/12/30 05:00:31;;;;;;;1.20;0.90;;;;;;;4.74;100.00;100108.88;5069832;28;20047;-77
2021/12/30 05:05:32;;;;;;;2.25;0.90;;;;;;;4.59;100.00;100106.38;5070305;28;20500;-77
2021/12/30 05:07:57;;;;;;;0.90;0.80;;;;;;;4.63;100.00;100120.22;5070414;28;20029;-79
2021/12/30 05:10:23;;;;;;;1.88;0.80;;;;;;;4.64;100.00;100135.63;5069917;28;20025;-74
2021/12/30 05:12:49;;;;;;;1.20;1.00;;;;;;;4.57;100.00;100128.41;5070379;28;20106;-74
2021/12/30 05:15:15;;;;;;;2.08;1.05;;;;;;;4.18;100.00;100079.41;5070419;28;20021;-75
2021/12/30 05:17:41;;;;;;;1.52;0.90;;;;;;;4.45;100.00;100128.63;5070397;28;20029;-77
2021/12/30 05:20:08;;;;;;;1.08;0.98;;;;;;;4.48;100.00;100141.56;5070288;28;20028;-81
2021/12/30 05:22:34;;;;;;;1.33;1.00;;;;;;;4.44;100.00;100138.78;5069940;28;20090;-78
2021/12/30 05:25:00;;;;;;;3.50;1.75;;;;;;;4.20;100.00;100108.47;5066625;28;20067;-78
2021/12/30 05:27:26;;;;;;;5.45;1.92;;;;;;;4.31;100.00;100138.06;5069995;28;20519;-80
2021/12/30 05:29:51;;;;;;;3.28;1.30;;;;;;;4.28;100.00;100142.13;5070780;28;20021;-77
2021/12/30 05:32:17;;;;;;;2.33;1.33;;;;;;;4.37;100.00;100147.75;5074135;28;20056;-79
2021/12/30 05:34:42;;;;;;;2.15;0.98;;;;;;;4.16;100.00;100138.09;5073850;28;20025;-78
2021/12/30 05:37:08;;;;;;;1.08;0.90;;;;;;;4.19;100.00;100156.13;5073733;28;20106;-75
2021/12/30 05:39:37;;;;;;;2.42;1.08;;;;;;;4.30;100.00;100160.97;5073297;28;20020;-79
2021/12/30 05:42:03;;;;;;;1.58;1.00;;;;;;;4.07;100.00;100141.78;5073538;28;20024;-79
2021/12/30 05:44:28;;;;;;;3.53;1.35;;;;;;;4.22;100.00;100180.97;5073648;28;20029;-76
2021/12/30 05:46:54;;;;;;;3.45;1.15;;;;;;;4.07;100.00;100164.78;5053402;28;20029;-77
2021/12/30 05:49:19;;;;;;;6.60;1.88;;;;;;;4.05;100.00;100173.22;5053459;28;20483;-75
2021/12/30 05:51:45;;;;;;;6.25;2.33;;;;;;;4.10;100.00;100178.59;5053096;28;20107;-79
2021/12/30 05:54:10;;;;;;;10.80;6.50;;;;;;;4.18;100.00;100196.94;5053225;28;20048;-80
2021/12/30 05:56:37;;;;;;;59.08;34.40;;;;;;;4.20;100.00;100201.34;5051994;28;20061;-76
2021/12/30 05:59:02;;;;;;;9.77;5.68;;;;;;;4.29;100.00;100203.53;5053136;28;20037;-78
2021/12/30 06:01:28;;;;;;;11.18;5.35;;;;;;;4.35;100.00;100208.13;5053162;28;20079;-75
2021/12/30 06:03:53;;;;;;;314.23;156.65;;;;;;;4.41;100.00;100222.94;5035097;28;20053;-81
2021/12/30 06:06:24;;;;;;;193.23;112.32;;;;;;;4.35;100.00;100218.34;5052949;28;20479;-82
2021/12/30 06:08:50;;;;;;;81.95;52.15;;;;;;;4.36;100.00;100228.66;5052860;28;20032;-79
2021/12/30 06:11:16;;;;;;;60.22;41.97;;;;;;;4.03;100.00;100195.22;5052966;28;20549;-78
2021/12/30 06:13:42;;;;;;;12.02;8.88;;;;;;;3.94;100.00;100204.00;5052797;28;20104;-80
2021/12/30 06:16:07;;;;;;;19.52;15.82;;;;;;;4.09;100.00;100237.25;5052878;28;20024;-75
2021/12/30 06:18:33;;;;;;;11.82;8.77;;;;;;;4.00;100.00;100240.13;5052770;28;20538;-74
2021/12/30 06:20:58;;;;;;;12.57;9.77;;;;;;;3.97;100.00;100245.09;5053021;28;20060;-75
2021/12/30 06:23:23;;;;;;;17.48;13.60;;;;;;;3.90;100.00;100243.84;5052632;28;20027;-74
2021/12/30 06:25:49;;;;;;;10.40;9.10;;;;;;;4.01;100.00;100257.25;5052900;28;20471;-76
2021/12/30 06:28:14;;;;;;;12.40;9.48;;;;;;;3.82;100.00;100239.94;5052584;28;20032;-75
2021/12/30 06:30:40;;;;;;;27.70;19.60;;;;;;;3.68;100.00;100224.66;5034640;28;20075;-80
2021/12/30 06:33:05;;;;;;;12.55;10.30;;;;;;;3.97;100.00;100280.84;5054173;28;20028;-73
2021/12/30 06:35:34;;;;;;;17.52;12.10;;;;;;;3.79;100.00;100265.28;5068144;28;20033;-77
2021/12/30 06:38:00;;;;;;;30.13;26.20;;;;;;;3.81;100.00;100272.22;5072134;28;20520;-78
2021/12/30 06:40:26;;;;;;;32.38;26.13;;;;;;;3.87;100.00;100271.75;5054227;28;20097;-78
2021/12/30 06:42:52;;;;;;;17.42;12.52;;;;;;;3.88;100.00;100279.47;5072110;28;20456;-80
2021/12/30 06:45:17;;;;;;;10.52;8.45;;;;;;;3.40;100.00;100204.22;5071977;28;20078;-78
2021/12/30 06:47:44;;;;;;;12.10;10.80;;;;;;;3.86;100.00;100290.41;5072037;28;20154;-78
2021/12/30 06:50:12;;;;;;;7.43;4.93;;;;;;;3.64;100.00;100252.44;5071757;28;20078;-80
2021/12/30 06:52:38;;;;;;;11.90;10.65;;;;;;;3.86;100.00;100280.19;5054334;28;20093;-79
2021/12/30 06:55:04;;;;;;;5.47;3.97;;;;;;;3.96;100.00;100307.16;5072217;28;20031;-70
2021/12/30 06:57:30;;;;;;;15.57;9.05;;;;;;;3.87;100.00;100289.63;5071739;28;20036;-72
2021/12/30 06:59:55;;;;;;;32.10;25.45;;;;;;;3.82;100.00;100278.25;5070408;28;20048;-75
2021/12/30 07:02:21;;;;;;;25.00;15.93;;;;;;;4.08;100.00;100322.38;5071508;28;20029;-75
2021/12/30 07:04:47;;;;;;;32.05;24.63;;;;;;;3.97;100.00;100314.91;5053282;28;20491;-75
2021/12/30 07:07:12;;;;;;;8.45;6.85;;;;;;;4.01;100.00;100326.19;5063105;28;20027;-72
2021/12/30 07:09:38;;;;;;;20.40;14.20;;;;;;;4.10;100.00;100324.22;5056196;28;20483;-74
2021/12/30 07:12:04;;;;;;;7.93;3.95;;;;;;;4.12;100.00;100324.31;5052490;28;20033;-74
2021/12/30 07:14:30;;;;;;;7.57;6.60;;;;;;;4.20;100.00;100338.44;5050404;28;20467;-71
2021/12/30 07:16:55;;;;;;;13.43;9.20;;;;;;;4.15;100.00;100340.72;5050508;28;20029;-72
2021/12/30 07:19:21;;;;;;;6.75;4.03;;;;;;;4.21;100.00;100358.97;5050444;28;20032;-70
2021/12/30 07:21:46;;;;;;;11.95;7.53;;;;;;;4.11;100.00;100346.44;5052145;28;20423;-74
2021/12/30 07:24:12;;;;;;;15.75;9.30;;;;;;;4.22;100.00;100362.41;5055238;28;20459;-74
2021/12/30 07:26:38;;;;;;;13.23;6.60;;;;;;;4.14;100.00;100359.38;5050479;28;20530;-78
2021/12/30 07:29:04;;;;;;;26.15;14.23;;;;;;;4.14;100.00;100344.06;5050355;28;20032;-73
2021/12/30 07:31:30;;;;;;;17.42;9.27;;;;;;;3.99;100.00;100323.56;5053888;28;20024;-75
2021/12/30 07:33:56;;;;;;;10.60;4.50;;;;;;;4.28;100.00;100372.13;5057428;28;20033;-76
2021/12/30 07:36:22;;;;;;;13.25;5.97;;;;;;;4.26;100.00;100354.16;5057186;28;20029;-74
2021/12/30 07:38:51;;;;;;;15.60;8.15;;;;;;;4.32;100.00;100369.81;5055408;28;20108;-73
2021/12/30 07:41:17;;;;;;;20.23;11.75;;;;;;;4.28;100.00;100375.53;5051048;28;20029;-75
2021/12/30 07:43:43;;;;;;;21.95;10.68;;;;;;;4.18;100.00;100360.44;5003381;28;20042;-73
2021/12/30 07:46:09;;;;;;;8.65;4.38;;;;;;;4.30;100.00;100373.97;5005853;28;20049;-73
2021/12/30 07:48:36;;;;;;;11.73;6.97;;;;;;;4.28;100.00;100373.00;5007824;28;20038;-72
2021/12/30 07:51:01;;;;;;;16.13;9.98;;;;;;;4.44;100.00;100395.25;5004878;28;20049;-73
2021/12/30 07:53:27;;;;;;;14.60;4.95;;;;;;;4.42;100.00;100386.59;5002898;28;20042;-72
2021/12/30 07:55:52;;;;;;;5.07;2.50;;;;;;;4.31;100.00;100405.50;5008547;28;20061;-72
2021/12/30 07:58:18;;;;;;;4.82;2.88;;;;;;;4.20;100.00;100404.88;5006603;28;20041;-74
2021/12/30 08:00:43;;;;;;;4.05;3.00;;;;;;;4.21;100.00;100407.53;5005838;28;20142;-73
2021/12/30 08:03:09;;;;;;;11.70;5.55;;;;;;;4.17;100.00;100405.53;4975169;28;20053;-74
2021/12/30 08:05:34;;;;;;;6.75;3.63;;;;;;;4.20;100.00;100410.00;5008346;28;20163;-75
2021/12/30 08:08:00;;;;;;;12.13;4.88;;;;;;;4.17;100.00;100423.44;5008225;28;20037;-75
2021/12/30 08:10:26;;;;;;;21.83;8.32;;;;;;;4.01;100.00;100418.16;4991339;28;20585;-74
2021/12/30 08:12:54;;;;;;;8.93;4.25;;;;;;;3.82;100.00;100390.59;5005872;28;20061;-74
2021/12/30 08:15:20;;;;;;;14.88;5.88;;;;;;;4.09;100.00;100428.84;5045994;28;20043;-74
2021/12/30 08:17:48;;;;;;;4.85;2.63;;;;;;;4.09;100.00;100433.97;5061375;28;20399;-79
2021/12/30 08:20:16;;;;;;;4.05;2.45;;;;;;;4.02;100.00;100418.25;5064761;28;20056;-72
2021/12/30 08:22:44;;;;;;;4.85;2.90;;;;;;;4.03;100.00;100434.47;5062258;28;20057;-75
2021/12/30 08:25:12;;;;;;;11.05;5.43;;;;;;;3.82;100.00;100405.91;5064322;28;20025;-73
2021/12/30 08:27:37;;;;;;;11.02;4.63;;;;;;;4.01;100.00;100454.84;5056728;28;20036;-74
2021/12/30 08:30:08;;;;;;;11.15;4.15;;;;;;;3.82;100.00;100422.13;5050259;28;20037;-76
2021/12/30 08:32:33;;;;;;;26.30;9.70;;;;;;;4.04;100.00;100459.25;5048905;28;20025;-78
2021/12/30 08:34:59;;;;;;;29.60;14.50;;;;;;;4.05;100.00;100472.09;5050579;28;20043;-74
2021/12/30 08:37:25;;;;;;;29.23;11.25;;;;;;;3.80;100.00;100425.34;5050329;28;20395;-74
2021/12/30 08:39:50;;;;;;;27.75;14.32;;;;;;;3.88;100.00;100422.50;5050246;28;20028;-74
2021/12/30 08:42:25;;;;;;;21.60;16.88;;;;;;;4.23;100.00;100471.50;5050332;28;20025;-75
2021/12/30 08:44:53;;;;;;;7.78;6.15;;;;;;;4.33;100.00;100467.84;5050152;28;20059;-74
2021/12/30 08:47:19;;;;;;;6.43;4.32;;;;;;;4.38;100.00;100467.31;5050548;28;20130;-75
2021/12/30 08:49:46;;;;;;;7.22;4.75;;;;;;;4.44;100.00;100463.41;5050241;28;20499;-74
2021/12/30 08:52:16;;;;;;;10.32;7.28;;;;;;;4.58;100.00;100469.34;5050162;28;20502;-72
2021/12/30 08:54:43;;;;;;;6.22;4.65;;;;;;;4.58;100.00;100467.66;5050311;28;20040;-72
2021/12/30 08:57:09;;;;;;;11.27;8.73;;;;;;;4.41;100.00;100427.41;5050109;28;20560;-79
2021/12/30 08:59:35;;;;;;;9.73;6.85;;;;;;;4.74;100.00;100472.03;5049891;28;20116;-76
2021/12/30 09:02:05;;;;;;;20.00;12.57;;;;;;;4.76;100.00;100479.78;5050605;28;20068;-78
2021/12/30 09:04:31;;;;;;;15.27;10.90;;;;;;;4.83;100.00;100481.94;5050619;28;20126;-77
2021/12/30 09:06:57;;;;;;;23.73;18.02;;;;;;;4.82;100.00;100478.50;5053952;28;20469;-77
2021/12/30 09:09:22;;;;;;;8.60;6.15;;;;;;;4.89;100.00;100492.53;5054171;28;20111;-75
2021/12/30 09:11:48;;;;;;;14.13;11.15;;;;;;;4.54;100.00;100435.03;5053915;28;20028;-74
2021/12/30 09:14:14;;;;;;;4.50;3.15;;;;;;;4.47;100.00;100428.66;5069190;28;20479;-77
2021/12/30 09:16:41;;;;;;;6.95;4.45;;;;;;;4.82;100.00;100486.19;5053876;28;20053;-79
2021/12/30 09:19:07;;;;;;;9.52;6.55;;;;;;;4.84;100.00;100489.69;5054147;28;20043;-77
2021/12/30 09:21:32;;;;;;;8.35;5.78;;;;;;;4.44;100.00;100419.94;5053853;28;20029;-75
2021/12/30 09:23:58;;;;;;;5.25;3.58;;;;;;;4.82;100.00;100488.75;5053545;28;20029;-77
2021/12/30 09:26:23;;;;;;;7.90;5.50;;;;;;;4.68;100.00;100458.88;5053730;28;20485;-78
2021/12/30 09:28:49;;;;;;;8.35;5.90;;;;;;;4.82;100.00;100492.97;5053482;28;20475;-75
2021/12/30 09:31:16;;;;;;;7.65;4.78;;;;;;;4.75;100.00;100483.13;5053348;28;20196;-76
2021/12/30 09:33:41;;;;;;;4.03;2.90;;;;;;;4.75;100.00;100493.38;5053633;28;20116;-79
2021/12/30 09:36:07;;;;;;;9.82;6.22;;;;;;;4.72;100.00;100501.75;5053471;28;20032;-77
2021/12/30 09:38:33;;;;;;;6.47;4.20;;;;;;;4.59;100.00;100495.00;5053430;28;20483;-78
2021/12/30 09:40:58;;;;;;;3.95;2.47;;;;;;;4.57;100.00;100501.69;5053452;28;20086;-77
2021/12/30 09:43:24;;;;;;;8.63;5.65;;;;;;;4.63;100.00;100504.63;5053263;28;20027;-75
2021/12/30 09:45:50;;;;;;;5.50;3.67;;;;;;;4.63;100.00;100498.63;5053347;28;20180;-78
2021/12/30 09:48:16;;;;;;;4.65;3.22;;;;;;;4.68;100.00;100504.91;5053420;28;20036;-75
2021/12/30 09:50:48;;;;;;;4.50;3.40;;;;;;;4.69;100.00;100509.25;5053020;28;20041;-80
2021/12/30 09:53:17;;;;;;;5.32;4.10;;;;;;;4.72;100.00;100514.53;5053081;28;20036;-77
2021/12/30 09:55:42;;;;;;;5.80;4.50;;;;;;;4.77;100.00;100514.81;5051614;28;20076;-78
2021/12/30 09:58:08;;;;;;;6.45;4.88;;;;;;;4.78;100.00;100516.59;5053263;28;20056;-77
2021/12/30 10:00:34;;;;;;;6.45;4.47;;;;;;;4.73;100.00;100502.66;5053158;28;20461;-77
2021/12/30 10:02:59;;;;;;;14.18;10.18;;;;;;;4.71;100.00;100505.13;5052910;28;20490;-79
2021/12/30 10:05:28;;;;;;;11.65;9.63;;;;;;;4.63;100.00;100526.75;5053170;28;20116;-75
2021/12/30 10:08:11;;;;;;;9.23;6.85;;;;;;;4.34;100.00;100467.94;5052896;28;20515;-77
2021/12/30 10:10:39;;;;;;;12.48;6.35;;;;;;;4.57;100.00;100514.47;5053261;28;20036;-74
2021/12/30 10:13:34;;;;;;;18.80;10.55;;;;;;;4.45;100.00;100509.50;5052878;28;20033;-77
2021/12/30 10:16:09;;;;;;;9.95;6.55;;;;;;;4.45;100.00;100504.38;4971259;28;20453;-77
2021/12/30 10:18:46;;;;;;;12.27;6.28;;;;;;;4.36;100.00;100520.03;4971830;28;20041;-80
2021/12/30 10:21:15;;;;;;;11.40;5.07;;;;;;;4.25;100.00;100505.69;4955399;28;20096;-74
2021/12/30 10:23:46;;;;;;;38.80;15.98;;;;;;;4.32;100.00;100517.19;4971736;28;20030;-76
2021/12/30 10:26:12;;;;;;;9.32;4.68;;;;;;;4.21;100.00;100508.84;4971623;28;20684;-73
2021/12/30 10:28:40;;;;;;;35.60;16.90;;;;;;;4.27;100.00;100514.31;4971205;28;20055;-75
2021/12/30 10:31:11;;;;;;;35.85;15.48;;;;;;;4.30;100.00;100524.75;4971176;28;20031;-78
2021/12/30 10:34:09;;;;;;;59.53;27.95;;;;;;;4.22;100.00;100523.38;4971112;28;20134;-74
2021/12/30 10:36:43;;;;;;;23.20;15.52;;;;;;;3.95;100.00;100472.31;4913775;29;20079;-77
2021/12/30 10:39:39;;;;;;;15.40;11.05;;;;;;;4.25;100.00;100515.03;4913839;29;20072;-78
2021/12/30 10:42:09;;;;;;;9.63;7.00;;;;;;;4.32;100.00;100535.06;4895198;29;20535;-76
2021/12/30 10:44:50;;;;;;;;;;;;;;;4.35;100.00;100527.63;4895358;29;20040;-79
2021/12/30 10:47:18;;;;;;;5.95;3.70;;;;;;;3.99;100.00;100465.75;4894666;29;19967;-76
2021/12/30 10:49:57;;;;;;;8.43;4.50;;;;;;;4.28;100.00;100526.31;4894713;29;20041;-73
2021/12/30 10:52:23;;;;;;;14.02;7.80;;;;;;;4.30;100.00;100536.63;4932333;28;20046;-77
2021/12/30 10:54:48;;;;;;;12.85;7.10;;;;;;;4.02;100.00;100487.22;4970679;28;20453;-74
2021/12/30 10:57:14;;;;;;;27.05;11.02;;;;;;;4.29;100.00;100538.31;4970953;28;20410;-76
2021/12/30 10:59:42;;;;;;;15.85;12.80;;;;;;;4.24;100.00;100532.03;4970841;28;20051;-74
2021/12/30 11:02:12;;;;;;;6.97;3.97;;;;;;;4.33;100.00;100545.38;4970920;28;20034;-76
2021/12/30 11:04:45;;;;;;;10.52;5.85;;;;;;;4.37;100.00;100552.47;4970606;28;20046;-77
2021/12/30 11:07:18;;;;;;;9.13;5.15;;;;;;;4.24;100.00;100532.03;4970711;28;20039;-79
2021/12/30 11:09:53;;;;;;;15.85;5.47;;;;;;;4.29;100.00;100546.00;4954409;28;20030;-73
2021/12/30 11:12:26;;;;;;;9.90;4.90;;;;;;;4.32;100.00;100558.06;4979815;28;20228;-74
2021/12/30 11:14:52;;;;;;;10.55;4.82;;;;;;;4.29;100.00;100552.78;5003631;28;20044;-74
2021/12/30 11:17:22;;;;;;;6.90;4.43;;;;;;;3.96;100.00;100507.31;4993382;28;20044;-75
2021/12/30 11:19:56;;;;;;;13.80;5.70;;;;;;;4.29;100.00;100556.22;5048630;28;20025;-72
2021/12/30 11:22:26;;;;;;;18.10;6.68;;;;;;;4.27;100.00;100557.78;5059988;28;20048;-75
2021/12/30 11:24:55;;;;;;;12.82;5.22;;;;;;;4.27;100.00;100555.22;5058762;28;20033;-73
2021/12/30 11:27:22;;;;;;;12.15;4.65;;;;;;;4.21;100.00;100529.28;5067850;28;20028;-75